sensor_id;sensor_type;location;lat;lon;timestamp;P1;durP1;ratioP1;P2;durP2;ratioP2
419;SDS011;42600;54.408;13.016;2023-04-24T00:02:18;24.13;;;8.07;;
419;SDS011;42600;54.408;13.016;2023-04-24T00:04:46;21.87;;;6.73;;
419;SDS011;42600;54.408;13.016;2023-04-24T00:07:13;16.47;;;7.70;;
419;SDS011;42600;54.408;13.016;2023-04-24T00:09:41;18.90;;;8.10;;
419;SDS011;42600;54.408;13.016;2023-04-24T00:12:08;19.13;;;8.10;;
419;SDS011;42600;54.408;13.016;2023-04-24T00:14:34;24.33;;;8.10;;
419;SDS011;42600;54.408;13.016;2023-04-24T00:17:01;26.77;;;7.70;;
419;SDS011;42600;54.408;13.016;2023-04-24T00:19:28;21.03;;;8.00;;
419;SDS011;42600;54.408;13.016;2023-04-24T00:21:56;20.13;;;7.70;;
419;SDS011;42600;54.408;13.016;2023-04-24T00:24:23;16.50;;;6.80;;
419;SDS011;42600;54.408;13.016;2023-04-24T00:26:49;25.17;;;7.67;;
419;SDS011;42600;54.408;13.016;2023-04-24T00:29:16;19.77;;;7.10;;
419;SDS011;42600;54.408;13.016;2023-04-24T00:31:42;19.00;;;7.33;;
419;SDS011;42600;54.408;13.016;2023-04-24T00:34:09;15.90;;;6.80;;
419;SDS011;42600;54.408;13.016;2023-04-24T00:36:36;22.03;;;6.10;;
419;SDS011;42600;54.408;13.016;2023-04-24T00:39:04;18.90;;;7.67;;
419;SDS011;42600;54.408;13.016;2023-04-24T00:41:33;21.23;;;7.47;;
419;SDS011;42600;54.408;13.016;2023-04-24T00:44:01;14.97;;;6.17;;
419;SDS011;42600;54.408;13.016;2023-04-24T00:46:27;19.70;;;7.50;;
419;SDS011;42600;54.408;13.016;2023-04-24T00:48:55;21.77;;;6.63;;
419;SDS011;42600;54.408;13.016;2023-04-24T00:51:22;15.37;;;6.83;;
419;SDS011;42600;54.408;13.016;2023-04-24T00:53:49;16.70;;;6.47;;
419;SDS011;42600;54.408;13.016;2023-04-24T00:56:17;12.27;;;6.27;;
419;SDS011;42600;54.408;13.016;2023-04-24T00:58:44;22.30;;;7.70;;
419;SDS011;42600;54.408;13.016;2023-04-24T01:01:11;16.63;;;7.60;;
419;SDS011;42600;54.408;13.016;2023-04-24T01:03:38;15.80;;;6.63;;
419;SDS011;42600;54.408;13.016;2023-04-24T01:06:05;22.90;;;7.57;;
419;SDS011;42600;54.408;13.016;2023-04-24T01:08:33;18.57;;;7.97;;
419;SDS011;42600;54.408;13.016;2023-04-24T01:11:01;13.70;;;6.17;;
419;SDS011;42600;54.408;13.016;2023-04-24T01:13:31;13.00;;;4.67;;
419;SDS011;42600;54.408;13.016;2023-04-24T01:15:58;24.23;;;7.13;;
419;SDS011;42600;54.408;13.016;2023-04-24T01:18:25;13.33;;;5.57;;
419;SDS011;42600;54.408;13.016;2023-04-24T01:20:53;15.80;;;7.43;;
419;SDS011;42600;54.408;13.016;2023-04-24T01:23:24;19.50;;;7.13;;
419;SDS011;42600;54.408;13.016;2023-04-24T01:25:50;19.33;;;5.07;;
419;SDS011;42600;54.408;13.016;2023-04-24T01:28:17;25.60;;;8.70;;
419;SDS011;42600;54.408;13.016;2023-04-24T01:30:44;15.00;;;5.80;;
419;SDS011;42600;54.408;13.016;2023-04-24T01:33:11;16.30;;;7.10;;
419;SDS011;42600;54.408;13.016;2023-04-24T01:35:38;14.50;;;5.73;;
419;SDS011;42600;54.408;13.016;2023-04-24T01:38:04;16.60;;;7.37;;
419;SDS011;42600;54.408;13.016;2023-04-24T01:40:33;11.30;;;5.93;;
419;SDS011;42600;54.408;13.016;2023-04-24T01:43:00;20.10;;;7.10;;
419;SDS011;42600;54.408;13.016;2023-04-24T01:45:28;18.80;;;7.50;;
419;SDS011;42600;54.408;13.016;2023-04-24T01:47:55;14.80;;;5.77;;
419;SDS011;42600;54.408;13.016;2023-04-24T01:50:22;18.50;;;7.50;;
419;SDS011;42600;54.408;13.016;2023-04-24T01:52:48;22.33;;;8.30;;
419;SDS011;42600;54.408;13.016;2023-04-24T01:55:16;14.13;;;6.07;;
419;SDS011;42600;54.408;13.016;2023-04-24T01:57:44;15.20;;;6.70;;
419;SDS011;42600;54.408;13.016;2023-04-24T02:00:11;13.43;;;5.80;;
419;SDS011;42600;54.408;13.016;2023-04-24T02:02:38;21.47;;;6.77;;
419;SDS011;42600;54.408;13.016;2023-04-24T02:05:06;21.00;;;7.13;;
419;SDS011;42600;54.408;13.016;2023-04-24T02:07:33;13.70;;;6.23;;
419;SDS011;42600;54.408;13.016;2023-04-24T02:10:00;20.63;;;7.77;;
419;SDS011;42600;54.408;13.016;2023-04-24T02:12:26;12.97;;;7.20;;
419;SDS011;42600;54.408;13.016;2023-04-24T02:14:54;20.77;;;7.00;;
419;SDS011;42600;54.408;13.016;2023-04-24T02:17:21;16.37;;;7.23;;
419;SDS011;42600;54.408;13.016;2023-04-24T02:19:47;11.60;;;5.20;;
419;SDS011;42600;54.408;13.016;2023-04-24T02:22:14;12.50;;;6.10;;
419;SDS011;42600;54.408;13.016;2023-04-24T02:24:41;26.63;;;8.00;;
419;SDS011;42600;54.408;13.016;2023-04-24T02:27:07;15.50;;;6.30;;
419;SDS011;42600;54.408;13.016;2023-04-24T02:29:34;17.93;;;6.60;;
419;SDS011;42600;54.408;13.016;2023-04-24T02:32:02;22.43;;;7.30;;
419;SDS011;42600;54.408;13.016;2023-04-24T02:34:29;18.70;;;7.43;;
419;SDS011;42600;54.408;13.016;2023-04-24T02:36:55;19.33;;;7.43;;
419;SDS011;42600;54.408;13.016;2023-04-24T02:39:22;22.97;;;8.80;;
419;SDS011;42600;54.408;13.016;2023-04-24T02:41:49;21.70;;;8.40;;
419;SDS011;42600;54.408;13.016;2023-04-24T02:44:15;14.13;;;6.10;;
419;SDS011;42600;54.408;13.016;2023-04-24T02:46:42;19.00;;;7.10;;
419;SDS011;42600;54.408;13.016;2023-04-24T02:49:10;27.67;;;9.00;;
419;SDS011;42600;54.408;13.016;2023-04-24T02:51:37;13.47;;;6.30;;
419;SDS011;42600;54.408;13.016;2023-04-24T02:54:06;15.93;;;6.00;;
419;SDS011;42600;54.408;13.016;2023-04-24T02:56:32;19.80;;;9.13;;
419;SDS011;42600;54.408;13.016;2023-04-24T02:58:59;20.73;;;7.57;;
419;SDS011;42600;54.408;13.016;2023-04-24T03:01:26;28.67;;;8.70;;
419;SDS011;42600;54.408;13.016;2023-04-24T03:03:52;26.27;;;8.00;;
419;SDS011;42600;54.408;13.016;2023-04-24T03:06:20;21.50;;;7.90;;
419;SDS011;42600;54.408;13.016;2023-04-24T03:08:46;19.20;;;7.93;;
419;SDS011;42600;54.408;13.016;2023-04-24T03:11:13;28.60;;;8.17;;
419;SDS011;42600;54.408;13.016;2023-04-24T03:13:40;22.90;;;7.23;;
419;SDS011;42600;54.408;13.016;2023-04-24T03:16:06;24.30;;;7.70;;
419;SDS011;42600;54.408;13.016;2023-04-24T03:18:33;19.27;;;7.07;;
419;SDS011;42600;54.408;13.016;2023-04-24T03:21:00;23.20;;;8.10;;
419;SDS011;42600;54.408;13.016;2023-04-24T03:25:57;15.87;;;6.90;;
419;SDS011;42600;54.408;13.016;2023-04-24T03:28:24;19.73;;;8.43;;
419;SDS011;42600;54.408;13.016;2023-04-24T03:30:51;21.60;;;8.83;;
419;SDS011;42600;54.408;13.016;2023-04-24T03:33:17;23.87;;;10.23;;
419;SDS011;42600;54.408;13.016;2023-04-24T03:35:44;26.13;;;9.67;;
419;SDS011;42600;54.408;13.016;2023-04-24T03:38:10;29.23;;;11.10;;
419;SDS011;42600;54.408;13.016;2023-04-24T03:40:38;24.93;;;8.60;;
419;SDS011;42600;54.408;13.016;2023-04-24T03:43:05;20.43;;;8.00;;
419;SDS011;42600;54.408;13.016;2023-04-24T03:45:31;23.43;;;8.50;;
419;SDS011;42600;54.408;13.016;2023-04-24T03:47:58;24.80;;;9.73;;
419;SDS011;42600;54.408;13.016;2023-04-24T03:50:25;17.53;;;8.63;;
419;SDS011;42600;54.408;13.016;2023-04-24T03:52:54;31.53;;;12.60;;
419;SDS011;42600;54.408;13.016;2023-04-24T03:55:20;19.47;;;8.03;;
419;SDS011;42600;54.408;13.016;2023-04-24T03:57:48;29.43;;;7.70;;
419;SDS011;42600;54.408;13.016;2023-04-24T04:00:15;33.77;;;8.73;;
419;SDS011;42600;54.408;13.016;2023-04-24T04:02:42;43.60;;;11.70;;
419;SDS011;42600;54.408;13.016;2023-04-24T04:05:08;24.93;;;8.93;;
419;SDS011;42600;54.408;13.016;2023-04-24T04:07:35;22.90;;;8.70;;
419;SDS011;42600;54.408;13.016;2023-04-24T04:10:01;24.00;;;7.73;;
419;SDS011;42600;54.408;13.016;2023-04-24T04:12:28;32.83;;;9.30;;
419;SDS011;42600;54.408;13.016;2023-04-24T04:14:56;20.33;;;8.33;;
419;SDS011;42600;54.408;13.016;2023-04-24T04:17:23;21.97;;;9.50;;
419;SDS011;42600;54.408;13.016;2023-04-24T04:19:49;25.80;;;8.93;;
419;SDS011;42600;54.408;13.016;2023-04-24T04:22:16;15.70;;;6.73;;
419;SDS011;42600;54.408;13.016;2023-04-24T04:24:42;24.50;;;9.30;;
419;SDS011;42600;54.408;13.016;2023-04-24T04:27:09;20.50;;;7.53;;
419;SDS011;42600;54.408;13.016;2023-04-24T04:29:36;22.67;;;9.00;;
419;SDS011;42600;54.408;13.016;2023-04-24T04:32:04;21.43;;;8.00;;
419;SDS011;42600;54.408;13.016;2023-04-24T04:34:31;17.07;;;7.80;;
419;SDS011;42600;54.408;13.016;2023-04-24T04:36:58;19.03;;;6.53;;
419;SDS011;42600;54.408;13.016;2023-04-24T04:39:26;23.50;;;7.03;;
419;SDS011;42600;54.408;13.016;2023-04-24T04:41:53;16.80;;;6.70;;
419;SDS011;42600;54.408;13.016;2023-04-24T04:44:19;14.43;;;6.27;;
419;SDS011;42600;54.408;13.016;2023-04-24T04:46:46;9.90;;;6.23;;
419;SDS011;42600;54.408;13.016;2023-04-24T04:49:14;12.30;;;5.90;;
419;SDS011;42600;54.408;13.016;2023-04-24T04:51:41;17.03;;;7.40;;
419;SDS011;42600;54.408;13.016;2023-04-24T04:54:08;25.33;;;7.43;;
419;SDS011;42600;54.408;13.016;2023-04-24T04:56:34;14.43;;;6.60;;
419;SDS011;42600;54.408;13.016;2023-04-24T04:59:01;19.17;;;7.40;;
419;SDS011;42600;54.408;13.016;2023-04-24T05:01:28;18.10;;;7.20;;
419;SDS011;42600;54.408;13.016;2023-04-24T05:03:54;18.83;;;5.67;;
419;SDS011;42600;54.408;13.016;2023-04-24T05:06:22;18.20;;;7.07;;
419;SDS011;42600;54.408;13.016;2023-04-24T05:08:49;23.03;;;8.03;;
419;SDS011;42600;54.408;13.016;2023-04-24T05:11:16;17.87;;;7.33;;
419;SDS011;42600;54.408;13.016;2023-04-24T05:13:42;8.03;;;4.67;;
419;SDS011;42600;54.408;13.016;2023-04-24T05:16:09;11.63;;;6.73;;
419;SDS011;42600;54.408;13.016;2023-04-24T05:18:35;24.43;;;6.50;;
419;SDS011;42600;54.408;13.016;2023-04-24T05:21:02;15.00;;;7.17;;
419;SDS011;42600;54.408;13.016;2023-04-24T05:23:30;12.80;;;5.90;;
419;SDS011;42600;54.408;13.016;2023-04-24T05:25:56;18.77;;;6.77;;
419;SDS011;42600;54.408;13.016;2023-04-24T05:28:23;19.90;;;6.90;;
419;SDS011;42600;54.408;13.016;2023-04-24T05:30:53;12.13;;;7.17;;
419;SDS011;42600;54.408;13.016;2023-04-24T05:33:20;14.27;;;7.00;;
419;SDS011;42600;54.408;13.016;2023-04-24T05:35:47;15.67;;;6.73;;
419;SDS011;42600;54.408;13.016;2023-04-24T05:38:13;21.93;;;9.13;;
419;SDS011;42600;54.408;13.016;2023-04-24T05:40:44;16.63;;;7.27;;
419;SDS011;42600;54.408;13.016;2023-04-24T05:43:10;14.00;;;6.57;;
419;SDS011;42600;54.408;13.016;2023-04-24T05:45:37;16.87;;;6.83;;
419;SDS011;42600;54.408;13.016;2023-04-24T05:48:04;21.53;;;7.60;;
419;SDS011;42600;54.408;13.016;2023-04-24T05:50:31;23.77;;;10.23;;
419;SDS011;42600;54.408;13.016;2023-04-24T05:52:58;19.17;;;7.80;;
419;SDS011;42600;54.408;13.016;2023-04-24T05:55:24;17.23;;;7.90;;
419;SDS011;42600;54.408;13.016;2023-04-24T05:57:52;17.60;;;6.73;;
419;SDS011;42600;54.408;13.016;2023-04-24T06:00:19;33.80;;;7.73;;
419;SDS011;42600;54.408;13.016;2023-04-24T06:02:46;28.13;;;6.37;;
419;SDS011;42600;54.408;13.016;2023-04-24T06:05:13;19.73;;;7.17;;
419;SDS011;42600;54.408;13.016;2023-04-24T06:07:40;15.83;;;7.73;;
419;SDS011;42600;54.408;13.016;2023-04-24T06:10:07;16.53;;;7.10;;
419;SDS011;42600;54.408;13.016;2023-04-24T06:12:35;15.57;;;6.37;;
419;SDS011;42600;54.408;13.016;2023-04-24T06:15:03;15.30;;;7.03;;
419;SDS011;42600;54.408;13.016;2023-04-24T06:17:30;16.97;;;6.53;;
419;SDS011;42600;54.408;13.016;2023-04-24T06:19:57;22.37;;;6.50;;
419;SDS011;42600;54.408;13.016;2023-04-24T06:22:23;17.07;;;6.90;;
419;SDS011;42600;54.408;13.016;2023-04-24T06:24:50;15.67;;;6.47;;
419;SDS011;42600;54.408;13.016;2023-04-24T06:27:16;17.33;;;8.47;;
419;SDS011;42600;54.408;13.016;2023-04-24T06:29:43;16.97;;;7.63;;
419;SDS011;42600;54.408;13.016;2023-04-24T06:32:11;31.47;;;8.90;;
419;SDS011;42600;54.408;13.016;2023-04-24T06:34:37;12.27;;;5.73;;
419;SDS011;42600;54.408;13.016;2023-04-24T06:37:04;11.27;;;5.60;;
419;SDS011;42600;54.408;13.016;2023-04-24T06:39:30;22.03;;;5.60;;
419;SDS011;42600;54.408;13.016;2023-04-24T06:41:58;11.97;;;5.70;;
419;SDS011;42600;54.408;13.016;2023-04-24T06:44:25;15.10;;;6.53;;
419;SDS011;42600;54.408;13.016;2023-04-24T06:46:52;15.03;;;5.90;;
419;SDS011;42600;54.408;13.016;2023-04-24T06:49:19;13.37;;;6.17;;
419;SDS011;42600;54.408;13.016;2023-04-24T06:51:46;15.03;;;7.00;;
419;SDS011;42600;54.408;13.016;2023-04-24T06:54:13;13.83;;;4.70;;
419;SDS011;42600;54.408;13.016;2023-04-24T06:56:39;12.70;;;6.20;;
419;SDS011;42600;54.408;13.016;2023-04-24T06:59:06;15.50;;;5.27;;
419;SDS011;42600;54.408;13.016;2023-04-24T07:01:32;19.97;;;8.40;;
419;SDS011;42600;54.408;13.016;2023-04-24T07:03:59;17.70;;;5.50;;
419;SDS011;42600;54.408;13.016;2023-04-24T07:06:27;13.93;;;5.17;;
419;SDS011;42600;54.408;13.016;2023-04-24T07:08:56;25.97;;;9.20;;
419;SDS011;42600;54.408;13.016;2023-04-24T07:11:23;9.33;;;4.67;;
419;SDS011;42600;54.408;13.016;2023-04-24T07:13:54;17.20;;;6.73;;
419;SDS011;42600;54.408;13.016;2023-04-24T07:16:21;11.53;;;4.87;;
419;SDS011;42600;54.408;13.016;2023-04-24T07:18:47;12.07;;;5.30;;
419;SDS011;42600;54.408;13.016;2023-04-24T07:21:14;6.37;;;3.03;;
419;SDS011;42600;54.408;13.016;2023-04-24T07:23:42;9.33;;;3.43;;
419;SDS011;42600;54.408;13.016;2023-04-24T07:26:08;9.47;;;4.73;;
419;SDS011;42600;54.408;13.016;2023-04-24T07:28:35;9.17;;;5.50;;
419;SDS011;42600;54.408;13.016;2023-04-24T07:31:01;8.63;;;4.17;;
419;SDS011;42600;54.408;13.016;2023-04-24T07:33:28;9.90;;;4.83;;
419;SDS011;42600;54.408;13.016;2023-04-24T07:35:55;13.67;;;4.70;;
419;SDS011;42600;54.408;13.016;2023-04-24T07:38:21;9.43;;;4.33;;
419;SDS011;42600;54.408;13.016;2023-04-24T07:40:51;9.20;;;3.77;;
419;SDS011;42600;54.408;13.016;2023-04-24T07:43:19;8.90;;;4.07;;
419;SDS011;42600;54.408;13.016;2023-04-24T07:45:46;8.80;;;3.37;;
419;SDS011;42600;54.408;13.016;2023-04-24T07:48:13;7.70;;;3.33;;
419;SDS011;42600;54.408;13.016;2023-04-24T07:50:41;7.80;;;3.47;;
419;SDS011;42600;54.408;13.016;2023-04-24T07:53:07;7.30;;;4.60;;
419;SDS011;42600;54.408;13.016;2023-04-24T07:55:34;8.97;;;3.13;;
419;SDS011;42600;54.408;13.016;2023-04-24T07:58:02;9.70;;;3.73;;
419;SDS011;42600;54.408;13.016;2023-04-24T08:00:29;6.07;;;3.40;;
419;SDS011;42600;54.408;13.016;2023-04-24T08:02:55;5.43;;;3.13;;
419;SDS011;42600;54.408;13.016;2023-04-24T08:05:22;9.03;;;4.23;;
419;SDS011;42600;54.408;13.016;2023-04-24T08:07:50;8.07;;;3.90;;
419;SDS011;42600;54.408;13.016;2023-04-24T08:10:17;4.83;;;2.83;;
419;SDS011;42600;54.408;13.016;2023-04-24T08:12:44;6.97;;;3.10;;
419;SDS011;42600;54.408;13.016;2023-04-24T08:15:12;10.57;;;4.20;;
419;SDS011;42600;54.408;13.016;2023-04-24T08:17:38;8.17;;;3.60;;
419;SDS011;42600;54.408;13.016;2023-04-24T08:20:05;5.97;;;2.97;;
419;SDS011;42600;54.408;13.016;2023-04-24T08:22:38;6.20;;;3.30;;
419;SDS011;42600;54.408;13.016;2023-04-24T08:25:05;4.83;;;2.77;;
419;SDS011;42600;54.408;13.016;2023-04-24T08:27:32;7.87;;;2.80;;
419;SDS011;42600;54.408;13.016;2023-04-24T08:29:58;14.23;;;4.10;;
419;SDS011;42600;54.408;13.016;2023-04-24T08:32:27;5.00;;;2.60;;
419;SDS011;42600;54.408;13.016;2023-04-24T08:34:54;6.47;;;2.67;;
419;SDS011;42600;54.408;13.016;2023-04-24T08:37:21;8.60;;;3.20;;
419;SDS011;42600;54.408;13.016;2023-04-24T08:39:48;5.07;;;2.60;;
419;SDS011;42600;54.408;13.016;2023-04-24T08:42:15;5.40;;;2.43;;
419;SDS011;42600;54.408;13.016;2023-04-24T08:44:42;7.03;;;3.90;;
419;SDS011;42600;54.408;13.016;2023-04-24T08:47:10;9.10;;;3.00;;
419;SDS011;42600;54.408;13.016;2023-04-24T08:49:38;9.30;;;3.73;;
419;SDS011;42600;54.408;13.016;2023-04-24T08:52:05;7.40;;;2.63;;
419;SDS011;42600;54.408;13.016;2023-04-24T08:54:33;4.47;;;2.63;;
419;SDS011;42600;54.408;13.016;2023-04-24T08:57:00;4.40;;;2.77;;
419;SDS011;42600;54.408;13.016;2023-04-24T08:59:28;4.80;;;1.93;;
419;SDS011;42600;54.408;13.016;2023-04-24T09:01:56;7.90;;;2.27;;
419;SDS011;42600;54.408;13.016;2023-04-24T09:04:23;3.13;;;1.80;;
419;SDS011;42600;54.408;13.016;2023-04-24T09:06:52;3.80;;;2.60;;
419;SDS011;42600;54.408;13.016;2023-04-24T09:09:21;3.67;;;2.03;;
419;SDS011;42600;54.408;13.016;2023-04-24T09:11:48;2.50;;;1.50;;
419;SDS011;42600;54.408;13.016;2023-04-24T09:14:16;5.23;;;1.23;;
419;SDS011;42600;54.408;13.016;2023-04-24T09:16:43;3.03;;;1.10;;
419;SDS011;42600;54.408;13.016;2023-04-24T09:19:09;2.57;;;1.33;;
419;SDS011;42600;54.408;13.016;2023-04-24T09:21:36;3.17;;;1.60;;
419;SDS011;42600;54.408;13.016;2023-04-24T09:24:05;1.63;;;1.03;;
419;SDS011;42600;54.408;13.016;2023-04-24T09:26:34;9.53;;;1.20;;
419;SDS011;42600;54.408;13.016;2023-04-24T09:29:02;1.90;;;1.00;;
419;SDS011;42600;54.408;13.016;2023-04-24T09:31:29;1.67;;;0.90;;
419;SDS011;42600;54.408;13.016;2023-04-24T09:33:57;2.10;;;1.00;;
419;SDS011;42600;54.408;13.016;2023-04-24T09:36:26;1.47;;;0.70;;
419;SDS011;42600;54.408;13.016;2023-04-24T09:38:57;2.17;;;1.10;;
419;SDS011;42600;54.408;13.016;2023-04-24T09:41:25;1.43;;;0.80;;
419;SDS011;42600;54.408;13.016;2023-04-24T09:43:53;1.53;;;0.83;;
419;SDS011;42600;54.408;13.016;2023-04-24T09:46:20;7.63;;;1.27;;
419;SDS011;42600;54.408;13.016;2023-04-24T09:48:47;2.03;;;1.37;;
419;SDS011;42600;54.408;13.016;2023-04-24T09:51:14;1.50;;;0.80;;
419;SDS011;42600;54.408;13.016;2023-04-24T09:53:44;2.37;;;1.20;;
419;SDS011;42600;54.408;13.016;2023-04-24T09:56:11;1.60;;;0.80;;
419;SDS011;42600;54.408;13.016;2023-04-24T09:58:39;2.00;;;1.30;;
419;SDS011;42600;54.408;13.016;2023-04-24T10:01:06;1.37;;;0.77;;
419;SDS011;42600;54.408;13.016;2023-04-24T10:03:33;2.43;;;1.40;;
419;SDS011;42600;54.408;13.016;2023-04-24T10:06:00;1.70;;;0.80;;
419;SDS011;42600;54.408;13.016;2023-04-24T10:08:32;1.30;;;1.00;;
419;SDS011;42600;54.408;13.016;2023-04-24T10:10:59;2.90;;;1.00;;
419;SDS011;42600;54.408;13.016;2023-04-24T10:13:26;1.77;;;1.00;;
419;SDS011;42600;54.408;13.016;2023-04-24T10:15:54;2.03;;;1.03;;
419;SDS011;42600;54.408;13.016;2023-04-24T10:18:22;1.37;;;1.03;;
419;SDS011;42600;54.408;13.016;2023-04-24T10:20:50;3.93;;;1.00;;
419;SDS011;42600;54.408;13.016;2023-04-24T10:23:19;4.13;;;1.00;;
419;SDS011;42600;54.408;13.016;2023-04-24T10:25:46;2.00;;;0.90;;
419;SDS011;42600;54.408;13.016;2023-04-24T10:28:14;1.70;;;1.10;;
419;SDS011;42600;54.408;13.016;2023-04-24T10:30:42;1.60;;;0.93;;
419;SDS011;42600;54.408;13.016;2023-04-24T10:33:10;2.60;;;0.90;;
419;SDS011;42600;54.408;13.016;2023-04-24T10:35:42;3.07;;;1.30;;
419;SDS011;42600;54.408;13.016;2023-04-24T10:38:13;1.73;;;0.80;;
419;SDS011;42600;54.408;13.016;2023-04-24T10:40:42;1.10;;;0.70;;
419;SDS011;42600;54.408;13.016;2023-04-24T10:43:09;1.70;;;1.20;;
419;SDS011;42600;54.408;13.016;2023-04-24T10:45:36;1.80;;;0.83;;
419;SDS011;42600;54.408;13.016;2023-04-24T10:48:04;1.23;;;0.67;;
419;SDS011;42600;54.408;13.016;2023-04-24T10:50:43;1.97;;;0.77;;
419;SDS011;42600;54.408;13.016;2023-04-24T10:53:12;1.50;;;1.00;;
419;SDS011;42600;54.408;13.016;2023-04-24T10:55:41;1.90;;;0.90;;
419;SDS011;42600;54.408;13.016;2023-04-24T10:58:09;1.57;;;0.80;;
419;SDS011;42600;54.408;13.016;2023-04-24T11:00:37;3.97;;;0.83;;
419;SDS011;42600;54.408;13.016;2023-04-24T11:03:04;1.20;;;0.70;;
419;SDS011;42600;54.408;13.016;2023-04-24T11:08:23;1.13;;;0.60;;
419;SDS011;42600;54.408;13.016;2023-04-24T11:10:55;1.47;;;0.80;;
419;SDS011;42600;54.408;13.016;2023-04-24T11:13:23;1.20;;;0.60;;
419;SDS011;42600;54.408;13.016;2023-04-24T11:18:41;1.37;;;0.80;;
419;SDS011;42600;54.408;13.016;2023-04-24T11:21:12;1.33;;;0.80;;
419;SDS011;42600;54.408;13.016;2023-04-24T11:23:39;1.47;;;0.60;;
419;SDS011;42600;54.408;13.016;2023-04-24T11:26:11;1.60;;;0.90;;
419;SDS011;42600;54.408;13.016;2023-04-24T11:28:44;1.37;;;0.60;;
419;SDS011;42600;54.408;13.016;2023-04-24T11:34:05;1.00;;;0.63;;
419;SDS011;42600;54.408;13.016;2023-04-24T11:36:34;1.40;;;1.00;;
419;SDS011;42600;54.408;13.016;2023-04-24T11:39:01;1.50;;;0.73;;
419;SDS011;42600;54.408;13.016;2023-04-24T11:41:28;2.60;;;0.83;;
419;SDS011;42600;54.408;13.016;2023-04-24T11:43:55;2.50;;;0.73;;
419;SDS011;42600;54.408;13.016;2023-04-24T11:46:22;1.57;;;0.73;;
419;SDS011;42600;54.408;13.016;2023-04-24T11:48:52;2.70;;;1.00;;
419;SDS011;42600;54.408;13.016;2023-04-24T11:51:19;1.70;;;0.90;;
419;SDS011;42600;54.408;13.016;2023-04-24T11:53:47;1.67;;;0.83;;
419;SDS011;42600;54.408;13.016;2023-04-24T11:56:16;1.10;;;0.70;;
419;SDS011;42600;54.408;13.016;2023-04-24T11:58:44;2.40;;;0.97;;
419;SDS011;42600;54.408;13.016;2023-04-24T12:01:11;2.50;;;1.03;;
419;SDS011;42600;54.408;13.016;2023-04-24T12:03:38;1.50;;;0.80;;
419;SDS011;42600;54.408;13.016;2023-04-24T12:06:08;1.10;;;0.63;;
419;SDS011;42600;54.408;13.016;2023-04-24T12:08:36;1.60;;;0.80;;
419;SDS011;42600;54.408;13.016;2023-04-24T12:11:05;4.40;;;0.80;;
419;SDS011;42600;54.408;13.016;2023-04-24T12:13:33;1.47;;;0.83;;
419;SDS011;42600;54.408;13.016;2023-04-24T12:16:01;1.40;;;0.90;;
419;SDS011;42600;54.408;13.016;2023-04-24T12:18:29;1.40;;;0.63;;
419;SDS011;42600;54.408;13.016;2023-04-24T12:21:03;1.00;;;0.50;;
419;SDS011;42600;54.408;13.016;2023-04-24T12:23:42;2.60;;;0.80;;
419;SDS011;42600;54.408;13.016;2023-04-24T12:26:10;2.83;;;0.97;;
419;SDS011;42600;54.408;13.016;2023-04-24T12:28:38;1.60;;;1.17;;
419;SDS011;42600;54.408;13.016;2023-04-24T12:31:05;1.30;;;0.80;;
419;SDS011;42600;54.408;13.016;2023-04-24T12:33:33;1.10;;;0.63;;
419;SDS011;42600;54.408;13.016;2023-04-24T12:36:00;2.10;;;0.90;;
419;SDS011;42600;54.408;13.016;2023-04-24T12:38:27;1.83;;;0.70;;
419;SDS011;42600;54.408;13.016;2023-04-24T12:41:01;1.30;;;0.70;;
419;SDS011;42600;54.408;13.016;2023-04-24T12:43:30;1.30;;;0.83;;
419;SDS011;42600;54.408;13.016;2023-04-24T12:45:57;1.40;;;0.73;;
419;SDS011;42600;54.408;13.016;2023-04-24T12:48:24;1.30;;;0.70;;
419;SDS011;42600;54.408;13.016;2023-04-24T12:50:50;1.00;;;0.50;;
419;SDS011;42600;54.408;13.016;2023-04-24T12:53:17;5.13;;;0.87;;
419;SDS011;42600;54.408;13.016;2023-04-24T12:55:44;2.40;;;1.20;;
419;SDS011;42600;54.408;13.016;2023-04-24T12:58:11;1.37;;;0.70;;
419;SDS011;42600;54.408;13.016;2023-04-24T13:00:39;1.87;;;0.70;;
419;SDS011;42600;54.408;13.016;2023-04-24T13:03:08;1.63;;;0.80;;
419;SDS011;42600;54.408;13.016;2023-04-24T13:05:34;2.90;;;0.80;;
419;SDS011;42600;54.408;13.016;2023-04-24T13:08:01;1.27;;;0.87;;
419;SDS011;42600;54.408;13.016;2023-04-24T13:10:28;2.60;;;1.33;;
419;SDS011;42600;54.408;13.016;2023-04-24T13:12:54;3.40;;;1.60;;
419;SDS011;42600;54.408;13.016;2023-04-24T13:15:21;2.00;;;1.10;;
419;SDS011;42600;54.408;13.016;2023-04-24T13:17:50;2.43;;;1.07;;
419;SDS011;42600;54.408;13.016;2023-04-24T13:20:17;1.30;;;0.50;;
419;SDS011;42600;54.408;13.016;2023-04-24T13:22:44;1.53;;;0.90;;
419;SDS011;42600;54.408;13.016;2023-04-24T13:25:10;1.30;;;0.70;;
419;SDS011;42600;54.408;13.016;2023-04-24T13:27:38;2.90;;;0.90;;
419;SDS011;42600;54.408;13.016;2023-04-24T13:30:05;3.53;;;1.10;;
419;SDS011;42600;54.408;13.016;2023-04-24T13:32:32;2.10;;;0.73;;
419;SDS011;42600;54.408;13.016;2023-04-24T13:35:01;2.60;;;0.60;;
419;SDS011;42600;54.408;13.016;2023-04-24T13:37:28;1.43;;;0.80;;
419;SDS011;42600;54.408;13.016;2023-04-24T13:39:54;4.93;;;1.30;;
419;SDS011;42600;54.408;13.016;2023-04-24T13:42:21;1.30;;;0.90;;
419;SDS011;42600;54.408;13.016;2023-04-24T13:44:48;3.57;;;0.80;;
419;SDS011;42600;54.408;13.016;2023-04-24T13:47:15;1.53;;;0.80;;
419;SDS011;42600;54.408;13.016;2023-04-24T13:49:42;2.10;;;1.43;;
419;SDS011;42600;54.408;13.016;2023-04-24T13:52:10;1.40;;;0.60;;
419;SDS011;42600;54.408;13.016;2023-04-24T13:54:36;2.07;;;0.67;;
419;SDS011;42600;54.408;13.016;2023-04-24T13:57:03;1.10;;;0.57;;
419;SDS011;42600;54.408;13.016;2023-04-24T13:59:30;1.67;;;0.70;;
419;SDS011;42600;54.408;13.016;2023-04-24T14:01:56;1.87;;;0.80;;
419;SDS011;42600;54.408;13.016;2023-04-24T14:04:23;2.17;;;0.80;;
419;SDS011;42600;54.408;13.016;2023-04-24T14:06:49;1.60;;;1.03;;
419;SDS011;42600;54.408;13.016;2023-04-24T14:09:17;1.87;;;0.77;;
419;SDS011;42600;54.408;13.016;2023-04-24T14:11:44;1.40;;;0.70;;
419;SDS011;42600;54.408;13.016;2023-04-24T14:14:11;6.70;;;1.00;;
419;SDS011;42600;54.408;13.016;2023-04-24T14:16:37;3.30;;;0.93;;
419;SDS011;42600;54.408;13.016;2023-04-24T14:19:04;1.77;;;0.90;;
419;SDS011;42600;54.408;13.016;2023-04-24T14:21:31;3.00;;;1.20;;
419;SDS011;42600;54.408;13.016;2023-04-24T14:23:58;3.27;;;1.13;;
419;SDS011;42600;54.408;13.016;2023-04-24T14:26:26;2.37;;;1.37;;
419;SDS011;42600;54.408;13.016;2023-04-24T14:28:53;2.57;;;1.10;;
419;SDS011;42600;54.408;13.016;2023-04-24T14:31:20;1.87;;;0.97;;
419;SDS011;42600;54.408;13.016;2023-04-24T14:33:46;2.80;;;1.23;;
419;SDS011;42600;54.408;13.016;2023-04-24T14:36:13;1.40;;;1.00;;
419;SDS011;42600;54.408;13.016;2023-04-24T14:38:40;1.87;;;0.90;;
419;SDS011;42600;54.408;13.016;2023-04-24T14:41:06;2.30;;;1.27;;
419;SDS011;42600;54.408;13.016;2023-04-24T14:43:36;2.20;;;1.40;;
419;SDS011;42600;54.408;13.016;2023-04-24T14:46:03;1.10;;;0.80;;
419;SDS011;42600;54.408;13.016;2023-04-24T14:48:29;1.90;;;1.30;;
419;SDS011;42600;54.408;13.016;2023-04-24T14:50:56;1.77;;;1.37;;
419;SDS011;42600;54.408;13.016;2023-04-24T14:53:23;1.43;;;1.10;;
419;SDS011;42600;54.408;13.016;2023-04-24T14:55:50;2.37;;;1.50;;
419;SDS011;42600;54.408;13.016;2023-04-24T14:58:16;1.50;;;0.83;;
419;SDS011;42600;54.408;13.016;2023-04-24T15:00:44;1.20;;;0.80;;
419;SDS011;42600;54.408;13.016;2023-04-24T15:03:11;1.33;;;0.87;;
419;SDS011;42600;54.408;13.016;2023-04-24T15:05:37;1.83;;;0.97;;
419;SDS011;42600;54.408;13.016;2023-04-24T15:08:04;2.30;;;0.90;;